Time;durP1;ratioP1;P1;durP2;ratioP2;P2;SDS_P1;SDS_P2;PMS_P1;PMS_P2;Temp;Humidity;BMP_temperature;BMP_pressure;BME280_temperature;BME280_humidity;BME280_pressure;Samples;Min_cycle;Max_cycle;Signal;HPM_P1;HPM_P2
2023/04/09 00:01:06;;;;;;;;;;;;;;;8.85;100.00;100673.59;4923302;29;19915;-87
2023/04/09 00:03:32;;;;;;;;;;;;;;;8.84;100.00;100692.16;4922091;29;19926;-91
2023/04/09 00:05:58;;;;;;;;;;;;;;;8.84;100.00;100685.06;4905867;29;19952;-90
2023/04/09 00:08:23;;;;;;;;;;;;;;;8.81;100.00;100683.53;4922613;29;19990;-88
2023/04/09 00:10:49;;;;;;;;;;;;;;;8.78;100.00;100673.25;4906005;29;20140;-88
2023/04/09 00:13:15;;;;;;;;;;;;;;;8.79;100.00;100664.38;4906517;29;19923;-89
2023/04/09 00:15:41;;;;;;;;;;;;;;;8.75;100.00;100665.59;4899828;29;20268;-88
2023/04/09 00:18:06;;;;;;;;;;;;;;;8.76;100.00;100661.19;4894993;29;19973;-88
2023/04/09 00:20:32;;;;;;;;;;;;;;;8.74;100.00;100647.28;4909472;29;19969;-89
2023/04/09 00:22:58;;;;;;;;;;;;;;;8.72;100.00;100647.41;4896803;29;19977;-89
2023/04/09 00:25:23;;;;;;;;;;;;;;;8.67;100.00;100660.13;4898776;29;19923;-89
2023/04/09 00:27:49;;;;;;;;;;;;;;;8.67;100.00;100663.59;4927727;29;19919;-88
2023/04/09 00:30:15;;;;;;;;;;;;;;;8.64;100.00;100649.84;4910892;29;19927;-88
2023/04/09 00:32:40;;;;;;;;;;;;;;;8.59;100.00;100657.28;4899197;29;19918;-89
2023/04/09 00:35:06;;;;;;;;;;;;;;;8.56;100.00;100656.59;4923645;29;19919;-88
2023/04/09 00:37:32;;;;;;;;;;;;;;;8.58;100.00;100645.91;4938311;28;19926;-79
2023/04/09 00:39:58;;;;;;;;;;;;;;;8.57;100.00;100649.50;4921953;29;19934;-79
2023/04/09 00:42:23;;;;;;;;;;;;;;;8.55;100.00;100638.25;4924297;29;19927;-87
2023/04/09 00:44:50;;;;;;;;;;;;;;;8.51;100.00;100639.44;4900367;29;19978;-88
2023/04/09 00:47:16;;;;;;;;;;;;;;;8.52;100.00;100630.59;4914752;29;19993;-87
2023/04/09 00:49:41;;;;;;;;;;;;;;;8.55;100.00;100612.72;4923854;29;22111;-87
2023/04/09 00:52:07;;;;;;;;;;;;;;;8.50;100.00;100607.00;4924993;29;19926;-88
2023/04/09 00:54:33;;;;;;;;;;;;;;;8.51;100.00;100605.19;4914728;29;19923;-88
2023/04/09 00:56:59;;;;;;;;;;;;;;;8.51;100.00;100597.28;4938720;28;19930;-89
2023/04/09 00:59:25;;;;;;;;;;;;;;;8.50;100.00;100592.97;4913510;29;19927;-87
2023/04/09 01:01:50;;;;;;;;;;;;;;;8.50;100.00;100599.09;4934237;28;19941;-88
2023/04/09 01:04:16;;;;;;;;;;;;;;;8.51;100.00;100597.28;4918073;29;20372;-88
2023/04/09 01:06:54;;;;;;;;;;;;;;;8.47;100.00;100586.19;4893406;29;19965;-88
2023/04/09 01:09:40;;;;;;;;;;;;;;;8.49;100.00;100586.88;4919420;29;19930;-89
2023/04/09 01:12:25;;;;;;;;;;;;;;;8.47;100.00;100578.28;4890887;29;19979;-88
2023/04/09 01:14:50;;;;;;;;;;;;;;;8.50;100.00;100579.81;4908729;29;20431;-87
2023/04/09 01:17:44;;;;;;;;;;;;;;;8.47;100.00;100575.66;4894945;29;19981;-88
2023/04/09 01:20:13;;;;;;;;;;;;;;;8.45;100.00;100569.66;4890534;29;19930;-88
2023/04/09 01:22:44;;;;;;;;;;;;;;;8.43;100.00;100569.78;4890781;29;19976;-88
2023/04/09 01:25:20;;;;;;;;;;;;;;;8.49;100.00;100568.44;4903461;29;19931;-88
2023/04/09 01:27:54;;;;;;;;;;;;;;;8.47;100.00;100564.25;4942091;29;19927;-87
2023/04/09 01:30:20;;;;;;;;;;;;;;;8.43;100.00;100567.16;4912228;29;19934;-88
2023/04/09 01:32:46;;;;;;;;;;;;;;;8.41;100.00;100566.44;4897364;29;19919;-88
2023/04/09 01:35:12;;;;;;;;;;;;;;;8.42;100.00;100570.75;4918754;29;19923;-88
2023/04/09 01:37:39;;;;;;;;;;;;;;;8.41;100.00;100544.50;4911411;29;19926;-88
2023/04/09 01:40:05;;;;;;;;;;;;;;;8.38;100.00;100573.75;4897752;29;20025;-89
2023/04/09 01:42:31;;;;;;;;;;;;;;;8.38;100.00;100550.88;4908470;29;19919;-79
2023/04/09 01:44:58;;;;;;;;;;;;;;;8.34;100.00;100553.91;4906753;29;19930;-79
2023/04/09 01:47:24;;;;;;;;;;;;;;;8.34;100.00;100554.75;4917069;29;19919;-88
2023/04/09 01:49:50;;;;;;;;;;;;;;;8.32;100.00;100548.75;4907493;29;19923;-86
2023/04/09 01:52:16;;;;;;;;;;;;;;;8.28;100.00;100552.63;4927470;29;19970;-88
2023/04/09 01:54:42;;;;;;;;;;;;;;;8.28;100.00;100550.81;4898045;29;20355;-87
2023/04/09 01:57:07;;;;;;;;;;;;;;;8.24;100.00;100533.59;4902439;29;19923;-89
2023/04/09 01:59:33;;;;;;;;;;;;;;;8.25;100.00;100542.34;4911441;29;19919;-87
2023/04/09 02:02:00;;;;;;;;;;;;;;;8.24;100.00;100533.59;4927247;29;19927;-89
2023/04/09 02:04:34;;;;;;;;;;;;;;;8.22;100.00;100532.88;4909339;29;20565;-88
2023/04/09 02:07:04;;;;;;;;;;;;;;;8.17;100.00;100533.25;4928355;29;19930;-87
2023/04/09 02:09:32;;;;;;;;;;;;;;;8.20;100.00;100532.19;4920710;29;20303;-88
2023/04/09 02:12:00;;;;;;;;;;;;;;;8.20;100.00;100526.94;4910608;29;19926;-87
2023/04/09 02:14:27;;;;;;;;;;;;;;;8.20;100.00;100526.94;4904339;29;19927;-87
2023/04/09 02:16:53;;;;;;;;;;;;;;;8.18;100.00;100518.31;4900327;29;20367;-88
2023/04/09 02:19:18;;;;;;;;;;;;;;;8.12;100.00;100498.56;4910116;29;20394;-89
2023/04/09 02:21:45;;;;;;;;;;;;;;;8.14;100.00;100501.91;4908457;29;20343;-89
2023/04/09 02:24:10;;;;;;;;;;;;;;;8.08;100.00;100505.06;4909603;29;19939;-88
2023/04/09 02:26:36;;;;;;;;;;;;;;;8.06;100.00;100499.06;4911306;29;20435;-88
2023/04/09 02:29:02;;;;;;;;;;;;;;;8.05;100.00;100500.03;4909445;29;19927;-89
2023/04/09 02:31:28;;;;;;;;;;;;;;;8.03;100.00;100509.84;4935623;29;19927;-88
2023/04/09 02:33:53;;;;;;;;;;;;;;;8.01;100.00;100504.72;4939468;28;19926;-88
2023/04/09 02:36:19;;;;;;;;;;;;;;;7.98;100.00;100491.00;4925068;29;19919;-88
2023/04/09 02:38:45;;;;;;;;;;;;;;;7.97;100.00;100505.09;4935085;29;19960;-89
2023/04/09 02:41:10;;;;;;;;;;;;;;;7.95;100.00;100497.34;4917454;29;20427;-87
2023/04/09 02:43:36;;;;;;;;;;;;;;;7.97;100.00;100498.06;4921612;29;20504;-87
2023/04/09 02:46:01;;;;;;;;;;;;;;;7.94;100.00;100493.88;4931029;29;19997;-89
2023/04/09 02:48:28;;;;;;;;;;;;;;;7.94;100.00;100487.78;4896950;29;19915;-88
2023/04/09 02:50:54;;;;;;;;;;;;;;;7.92;100.00;100484.44;4920388;29;19947;-88
2023/04/09 02:53:23;;;;;;;;;;;;;;;7.93;100.00;100480.84;4901891;29;20415;-88
2023/04/09 02:55:49;;;;;;;;;;;;;;;7.92;100.00;100482.63;4904996;29;19971;-89
2023/04/09 02:58:14;;;;;;;;;;;;;;;7.95;100.00;100484.16;4929100;29;20713;-89
2023/04/09 03:00:40;;;;;;;;;;;;;;;7.97;100.00;100476.16;4919117;29;19919;-88
2023/04/09 03:03:06;;;;;;;;;;;;;;;7.99;100.00;100475.09;4918371;29;19930;-88
2023/04/09 03:05:31;;;;;;;;;;;;;;;7.94;100.00;100458.81;4922045;29;19919;-88
2023/04/09 03:07:57;;;;;;;;;;;;;;;7.95;100.00;100463.13;4895092;29;19923;-88
2023/04/09 03:10:22;;;;;;;;;;;;;;;7.96;100.00;100462.19;4927560;29;19958;-88
2023/04/09 03:12:48;;;;;;;;;;;;;;;7.92;100.00;100463.38;4910952;29;19946;-88
2023/04/09 03:15:14;;;;;;;;;;;;;;;7.89;100.00;100461.84;4911501;29;19915;-89
2023/04/09 03:17:39;;;;;;;;;;;;;;;7.93;100.00;100452.72;4916363;29;19919;-88
2023/04/09 03:20:06;;;;;;;;;;;;;;;7.92;100.00;100444.94;4922510;29;19927;-88
2023/04/09 03:22:36;;;;;;;;;;;;;;;7.92;100.00;100437.91;4908450;29;19942;-88
2023/04/09 03:25:03;;;;;;;;;;;;;;;7.92;100.00;100430.00;4895458;29;20014;-87
2023/04/09 03:27:29;;;;;;;;;;;;;;;7.96;100.00;100419.22;4940645;29;20014;-88
2023/04/09 03:29:56;;;;;;;;;;;;;;;7.96;100.00;100421.84;4900448;29;19921;-89
2023/04/09 03:32:28;;;;;;;;;;;;;;;7.95;100.00;100407.84;4907397;29;20382;-88
2023/04/09 03:34:54;;;;;;;;;;;;;;;7.99;100.00;100404.00;4925398;29;19915;-87
2023/04/09 03:37:21;;;;;;;;;;;;;;;8.04;100.00;100399.16;4939442;28;19937;-79
2023/04/09 03:39:47;;;;;;;;;;;;;;;8.01;100.00;100398.63;4910193;29;20360;-80
2023/04/09 03:42:13;;;;;;;;;;;;;;;8.00;100.00;100394.28;4906977;29;20363;-88
2023/04/09 03:44:44;;;;;;;;;;;;;;;7.97;100.00;100394.56;4912565;29;19918;-88
2023/04/09 03:47:14;;;;;;;;;;;;;;;7.97;100.00;100392.78;4903882;29;19925;-87
2023/04/09 03:49:40;;;;;;;;;;;;;;;7.99;100.00;100396.13;4895855;29;20287;-88
2023/04/09 03:52:16;;;;;;;;;;;;;;;7.97;100.00;100387.50;4918892;29;19950;-87
2023/04/09 03:54:45;;;;;;;;;;;;;;;7.99;100.00;100390.00;4911168;29;19921;-87
2023/04/09 03:57:16;;;;;;;;;;;;;;;7.99;100.00;100382.09;4907830;29;19970;-88
2023/04/09 03:59:44;;;;;;;;;;;;;;;7.98;100.00;100394.44;4912522;29;20518;-88
2023/04/09 04:02:11;;;;;;;;;;;;;;;7.98;100.00;100397.06;4916639;29;19962;-87
2023/04/09 04:04:42;;;;;;;;;;;;;;;7.98;100.00;100391.78;4918114;29;19932;-87
2023/04/09 04:07:09;;;;;;;;;;;;;;;7.98;100.00;100385.72;4887995;29;19927;-89
2023/04/09 04:09:41;;;;;;;;;;;;;;;7.95;100.00;100386.78;4915946;29;19919;-89
2023/04/09 04:12:10;;;;;;;;;;;;;;;7.94;100.00;100377.22;4911106;29;20167;-87
2023/04/09 04:14:50;;;;;;;;;;;;;;;7.95;100.00;100381.53;4915314;29;19931;-88
2023/04/09 04:17:22;;;;;;;;;;;;;;;7.92;100.00;100371.25;4914148;29;19967;-88
2023/04/09 04:19:50;;;;;;;;;;;;;;;7.93;100.00;100368.50;4898156;29;20184;-89
2023/04/09 04:22:16;;;;;;;;;;;;;;;7.91;100.00;100375.69;4897602;29;20348;-89
2023/04/09 04:24:44;;;;;;;;;;;;;;;7.88;100.00;100368.06;4941513;28;20003;-88
2023/04/09 04:27:14;;;;;;;;;;;;;;;7.87;100.00;100376.09;4897644;29;19914;-88
2023/04/09 04:29:40;;;;;;;;;;;;;;;7.85;100.00;100364.84;4894158;29;20283;-88
2023/04/09 04:32:20;;;;;;;;;;;;;;;7.87;100.00;100362.94;4918225;29;19920;-88
2023/04/09 04:34:47;;;;;;;;;;;;;;;7.88;100.00;100361.97;4889297;29;19918;-88
2023/04/09 04:37:20;;;;;;;;;;;;;;;7.87;100.00;100360.31;4918316;29;19958;-89
2023/04/09 04:39:45;;;;;;;;;;;;;;;7.83;100.00;100357.09;4914060;29;19966;-88
2023/04/09 04:42:15;;;;;;;;;;;;;;;7.85;100.00;100356.97;4929505;29;19927;-89
2023/04/09 04:44:41;;;;;;;;;;;;;;;7.86;100.00;100342.81;4911614;29;20356;-87
2023/04/09 04:47:14;;;;;;;;;;;;;;;7.85;100.00;100341.16;4916945;29;19944;-89
2023/04/09 04:49:40;;;;;;;;;;;;;;;7.80;100.00;100329.22;4884438;29;19987;-88
2023/04/09 04:52:07;;;;;;;;;;;;;;;7.78;100.00;100335.56;4907933;29;20460;-88
2023/04/09 04:54:33;;;;;;;;;;;;;;;7.72;100.00;100334.31;4891042;29;19915;-88
2023/04/09 04:57:00;;;;;;;;;;;;;;;7.73;100.00;100335.13;4905391;29;19923;-87
2023/04/09 04:59:39;;;;;;;;;;;;;;;7.69;100.00;100334.56;4936425;28;19958;-88
2023/04/09 05:02:06;;;;;;;;;;;;;;;7.69;100.00;100322.22;4903578;29;19923;-87
2023/04/09 05:04:42;;;;;;;;;;;;;;;7.69;100.00;100316.97;4934181;29;20009;-87
2023/04/09 05:07:12;;;;;;;;;;;;;;;7.63;100.00;100317.47;4937615;29;20517;-86
2023/04/09 05:09:45;;;;;;;;;;;;;;;7.66;100.00;100317.22;4903048;29;20006;-88
2023/04/09 05:12:11;;;;;;;;;;;;;;;7.63;100.00;100322.75;4925518;29;20403;-88
2023/04/09 05:14:36;;;;;;;;;;;;;;;7.63;100.00;100322.75;4900988;29;19978;-89
2023/04/09 05:17:02;;;;;;;;;;;;;;;7.60;100.00;100315.09;4920525;29;19926;-88
2023/04/09 05:19:39;;;;;;;;;;;;;;;7.60;100.00;100306.41;4914334;29;20327;-88
2023/04/09 05:22:04;;;;;;;;;;;;;;;7.62;100.00;100299.19;4930680;29;19958;-88
2023/04/09 05:24:30;;;;;;;;;;;;;;;7.60;100.00;100303.78;4910273;29;19923;-86
2023/04/09 05:26:56;;;;;;;;;;;;;;;7.58;100.00;100311.75;4927786;29;19914;-88
2023/04/09 05:29:22;;;;;;;;;;;;;;;7.54;100.00;100302.47;4929963;29;20478;-88
2023/04/09 05:31:48;;;;;;;;;;;;;;;7.53;100.00;100313.97;4931838;29;19928;-87
2023/04/09 05:34:23;;;;;;;;;;;;;;;7.54;100.00;100308.56;4913876;29;19927;-89
2023/04/09 05:36:52;;;;;;;;;;;;;;;7.54;100.00;100305.94;4916021;29;19914;-89
2023/04/09 05:39:20;;;;;;;;;;;;;;;7.54;100.00;100302.47;4931014;29;19973;-87
2023/04/09 05:41:46;;;;;;;;;;;;;;;7.54;100.00;100311.19;4936528;28;19923;-88
2023/04/09 05:44:31;;;;;;;;;;;;;;;7.55;100.00;100310.22;4912373;29;19922;-87
2023/04/09 05:47:04;;;;;;;;;;;;;;;7.56;100.00;100316.34;4921160;29;19930;-87
2023/04/09 05:49:37;;;;;;;;;;;;;;;7.60;100.00;100304.59;4919351;29;19919;-87
2023/04/09 05:52:08;;;;;;;;;;;;;;;7.63;100.00;100312.22;4921556;29;19919;-88
2023/04/09 05:54:34;;;;;;;;;;;;;;;7.63;100.00;100314.03;4904318;29;20026;-89
2023/04/09 05:57:00;;;;;;;;;;;;;;;7.66;100.00;100314.59;4926896;29;19923;-88
2023/04/09 05:59:26;;;;;;;;;;;;;;;7.72;100.00;100312.41;4924927;29;19923;-88
2023/04/09 06:01:52;;;;;;;;;;;;;;;7.77;100.00;100305.78;4932085;29;19926;-89
2023/04/09 06:04:18;;;;;;;;;;;;;;;7.82;100.00;100306.25;4948575;28;19989;-87
2023/04/09 06:06:44;;;;;;;;;;;;;;;7.90;100.00;100299.50;4910791;28;19993;-89
2023/04/09 06:09:10;;;;;;;;;;;;;;;7.96;100.00;100291.09;4916042;29;19923;-88
2023/04/09 06:11:37;;;;;;;;;;;;;;;8.02;100.00;100287.94;4937290;28;20303;-88
2023/04/09 06:14:03;;;;;;;;;;;;;;;8.06;100.00;100276.16;4909190;29;19923;-88
2023/04/09 06:16:28;;;;;;;;;;;;;;;8.11;100.00;100280.19;4914910;29;20022;-85
2023/04/09 06:18:55;;;;;;;;;;;;;;;8.15;100.00;100287.72;4931627;29;19922;-89
2023/04/09 06:21:21;;;;;;;;;;;;;;;8.15;100.00;100274.56;4942781;28;20399;-87
2023/04/09 06:23:47;;;;;;;;;;;;;;;8.16;100.00;100263.03;4928196;29;19923;-88
2023/04/09 06:26:13;;;;;;;;;;;;;;;8.16;100.00;100249.88;4914068;29;19926;-88
2023/04/09 06:28:38;;;;;;;;;;;;;;;8.19;100.00;100246.97;4908843;29;19919;-89
2023/04/09 06:31:04;;;;;;;;;;;;;;;8.21;100.00;100243.38;4928115;29;20311;-89
2023/04/09 06:33:30;;;;;;;;;;;;;;;8.23;100.00;100239.66;4902529;29;20216;-89
2023/04/09 06:35:55;;;;;;;;;;;;;;;8.25;100.00;100242.16;4914781;29;20021;-88
2023/04/09 06:38:21;;;;;;;;;;;;;;;8.25;100.00;100245.59;4932666;29;19989;-87
2023/04/09 06:40:47;;;;;;;;;;;;;;;8.28;100.00;100239.25;4914187;29;20013;-88
2023/04/09 06:43:12;;;;;;;;;;;;;;;8.26;100.00;100244.66;4928125;29;20423;-88
2023/04/09 06:45:43;;;;;;;;;;;;;;;8.30;100.00;100250.47;4923510;29;20025;-88
2023/04/09 06:48:09;;;;;;;;;;;;;;;8.34;100.00;100254.50;4914949;29;20018;-89
2023/04/09 06:50:35;;;;;;;;;;;;;;;8.38;100.00;100234.00;4926865;29;19922;-88
2023/04/09 06:53:01;;;;;;;;;;;;;;;8.36;100.00;100246.47;4900430;29;19974;-89
2023/04/09 06:55:26;;;;;;;;;;;;;;;8.39;100.00;100233.03;4914167;29;19927;-88
2023/04/09 06:57:52;;;;;;;;;;;;;;;8.41;100.00;100212.66;4847152;29;19930;-88
2023/04/09 07:00:18;;;;;;;;;;;;;;;8.46;100.00;100210.44;4924633;29;19982;-88
2023/04/09 07:02:43;;;;;;;;;;;;;;;8.48;100.00;100205.03;4905370;29;19930;-88
2023/04/09 07:05:09;;;;;;;;;;;;;;;8.54;100.00;100209.75;4915519;29;20414;-88
2023/04/09 07:07:35;;;;;;;;;;;;;;;8.51;100.00;100207.41;4912152;29;19941;-87
2023/04/09 07:10:00;;;;;;;;;;;;;;;8.56;100.00;100206.06;4938406;28;19927;-88
2023/04/09 07:12:27;;;;;;;;;;;;;;;8.55;100.00;100208.84;4920243;29;20520;-89
2023/04/09 07:14:52;;;;;;;;;;;;;;;8.59;100.00;100199.69;4907541;29;19922;-86
2023/04/09 07:17:18;;;;;;;;;;;;;;;8.65;100.00;100204.41;4891955;29;19915;-88
2023/04/09 07:19:44;;;;;;;;;;;;;;;8.71;100.00;100204.81;4924433;29;19930;-86
2023/04/09 07:22:09;;;;;;;;;;;;;;;8.72;100.00;100215.22;4943949;28;20354;-79
2023/04/09 07:24:36;;;;;;;;;;;;;;;8.77;100.00;100220.09;4917694;29;19954;-79
2023/04/09 07:27:05;;;;;;;;;;;;;;;8.81;100.00;100219.66;4910903;29;19921;-87
2023/04/09 07:29:31;;;;;;;;;;;;;;;8.83;100.00;100232.72;4929703;29;19941;-88
2023/04/09 07:31:57;;;;;;;;;;;;;;;8.86;100.00;100242.97;4927712;29;19922;-88
2023/04/09 07:34:22;;;;;;;;;;;;;;;8.88;100.00;100237.56;4930642;29;20288;-88
2023/04/09 07:36:48;;;;;;;;;;;;;;;8.90;100.00;100240.91;4901579;29;19919;-88
2023/04/09 07:39:14;;;;;;;;;;;;;;;8.96;100.00;100250.03;4901790;29;19972;-89
2023/04/09 07:41:40;;;;;;;;;;;;;;;9.00;100.00;100252.25;4951189;28;19931;-87
2023/04/09 07:44:06;;;;;;;;;;;;;;;9.02;100.00;100260.03;4912596;29;19930;-89
2023/04/09 07:46:32;;;;;;;;;;;;;;;9.05;100.00;100250.06;4916883;29;19964;-89
2023/04/09 07:48:57;;;;;;;;;;;;;;;9.11;100.00;100261.84;4911257;29;19941;-88
2023/04/09 07:51:23;;;;;;;;;;;;;;;9.16;100.00;100259.63;4915672;29;19923;-89
2023/04/09 07:53:49;;;;;;;;;;;;;;;9.20;100.00;100254.06;4928296;29;19952;-89
2023/04/09 07:56:15;;;;;;;;;;;;;;;9.24;100.00;100253.66;4932637;29;19998;-89
2023/04/09 07:58:41;;;;;;;;;;;;;;;9.29;100.00;100242.66;4901294;29;19918;-89
2023/04/09 08:01:07;;;;;;;;;;;;;;;9.31;100.00;100246.00;4917212;29;19922;-89
2023/04/09 08:03:35;;;;;;;;;;;;;;;9.33;100.00;100236.16;4924620;29;19958;-89
2023/04/09 08:06:00;;;;;;;;;;;;;;;9.35;100.00;100228.09;4930837;29;19936;-87
2023/04/09 08:08:26;;;;;;;;;;;;;;;9.35;100.00;100234.19;4931140;29;19927;-88
2023/04/09 08:10:52;;;;;;;;;;;;;;;9.42;100.00;100221.28;4924988;29;19919;-89
2023/04/09 08:13:17;;;;;;;;;;;;;;;9.47;100.00;100219.06;4926706;29;19919;-89
2023/04/09 08:15:43;;;;;;;;;;;;;;;9.48;100.00;100218.06;4905355;29;19919;-88
2023/04/09 08:18:09;;;;;;;;;;;;;;;9.59;100.00;100224.97;4901773;29;20630;-89
2023/04/09 08:20:34;;;;;;;;;;;;;;;9.62;100.00;100214.13;4910530;29;19926;-90
2023/04/09 08:23:00;;;;;;;;;;;;;;;9.66;100.00;100209.41;4921569;29;19960;-88
2023/04/09 08:25:26;;;;;;;;;;;;;;;9.66;100.00;100215.53;4913703;29;19926;-89
2023/04/09 08:27:52;;;;;;;;;;;;;;;9.71;100.00;100207.19;4914973;29;19919;-89
2023/04/09 08:30:17;;;;;;;;;;;;;;;9.75;100.00;100199.78;4881087;29;19982;-87
2023/04/09 08:32:44;;;;;;;;;;;;;;;9.76;100.00;100198.81;4914868;29;19919;-88
2023/04/09 08:35:10;;;;;;;;;;;;;;;9.84;100.00;100211.28;4925263;29;19923;-89
2023/04/09 08:37:35;;;;;;;;;;;;;;;9.81;100.00;100204.47;4921776;29;19929;-89
2023/04/09 08:40:01;;;;;;;;;;;;;;;9.82;100.00;100195.59;4906968;29;20391;-87
2023/04/09 08:42:28;;;;;;;;;;;;;;;9.83;100.00;100184.06;4944385;28;19999;-89
2023/04/09 08:44:54;;;;;;;;;;;;;;;9.92;100.00;100185.00;4927158;29;19933;-88
2023/04/09 08:47:19;;;;;;;;;;;;;;;9.95;100.00;100178.59;4932823;29;20370;-87
2023/04/09 08:49:47;;;;;;;;;;;;;;;9.97;100.00;100176.63;4933177;29;19923;-87
2023/04/09 08:52:15;;;;;;;;;;;;;;;10.04;100.00;100175.91;4893568;29;19926;-88
2023/04/09 08:54:40;;;;;;;;;;;;;;;10.03;100.00;100176.84;4911275;29;19930;-86
2023/04/09 08:57:06;;;;;;;;;;;;;;;10.06;100.00;100173.09;4935444;29;19922;-87
2023/04/09 08:59:35;;;;;;;;;;;;;;;10.08;100.00;100167.69;4910559;29;19958;-88
2023/04/09 09:02:08;;;;;;;;;;;;;;;10.09;100.00;100161.41;4933320;29;19978;-87
2023/04/09 09:04:44;;;;;;;;;;;;;;;10.10;100.00;100157.78;4910961;29;19950;-87
2023/04/09 09:07:10;;;;;;;;;;;;;;;10.17;100.00;100156.22;4916993;29;19937;-87
2023/04/09 09:09:49;;;;;;;;;;;;;;;10.13;100.00;100160.97;4917580;29;19926;-86
2023/04/09 09:12:29;;;;;;;;;;;;;;;10.18;100.00;100152.59;4925415;29;20770;-88
2023/04/09 09:14:55;;;;;;;;;;;;;;;10.23;100.00;100152.97;4884377;29;19918;-88
2023/04/09 09:17:20;;;;;;;;;;;;;;;10.25;100.00;100161.59;4914936;29;20364;-86
2023/04/09 09:19:46;;;;;;;;;;;;;;;10.26;100.00;100149.19;4922140;29;19923;-89
2023/04/09 09:22:12;;;;;;;;;;;;;;;10.28;100.00;100141.97;4912022;29;19927;-87
2023/04/09 09:24:48;;;;;;;;;;;;;;;10.32;100.00;100148.59;4931669;29;19923;-87
2023/04/09 09:27:32;;;;;;;;;;;;;;;10.29;100.00;100155.03;4928900;29;20006;-88
2023/04/09 09:29:58;;;;;;;;;;;;;;;10.26;100.00;100138.63;4898125;29;19922;-89
2023/04/09 09:32:24;;;;;;;;;;;;;;;10.27;100.00;100142.97;4911242;29;19970;-89
2023/04/09 09:35:01;;;;;;;;;;;;;;;10.26;100.00;100144.75;4933461;29;20021;-89
2023/04/09 09:37:27;;;;;;;;;;;;;;;10.22;100.00;100130.19;4931201;29;19965;-87
2023/04/09 09:39:53;;;;;;;;;;;;;;;10.23;100.00;100125.72;4926920;29;20368;-87
2023/04/09 09:42:18;;;;;;;;;;;;;;;10.26;100.00;100125.44;4917295;29;19974;-87
2023/04/09 09:44:44;;;;;;;;;;;;;;;10.24;100.00;100107.09;4924044;29;19927;-87
2023/04/09 09:47:12;;;;;;;;;;;;;;;10.25;100.00;100105.28;4915878;29;20292;-87
2023/04/09 09:49:37;;;;;;;;;;;;;;;10.26;100.00;100096.38;4908027;29;20368;-88
2023/04/09 09:52:07;;;;;;;;;;;;;;;10.29;100.00;100098.72;4918856;29;19979;-88
2023/04/09 09:54:38;;;;;;;;;;;;;;;10.33;100.00;100094.81;4892820;29;19951;-87
2023/04/09 09:57:06;;;;;;;;;;;;;;;10.36;100.00;100085.72;4928103;29;19919;-88
2023/04/09 09:59:36;;;;;;;;;;;;;;;10.33;100.00;100094.81;4943719;28;19942;-88
2023/04/09 10:02:06;;;;;;;;;;;;;;;10.27;100.00;100093.56;4913160;29;20006;-87
2023/04/09 10:04:36;;;;;;;;;;;;;;;10.28;100.00;100082.06;4912518;29;19929;-88
2023/04/09 10:07:06;;;;;;;;;;;;;;;10.33;100.00;100078.94;4911561;29;19973;-88
2023/04/09 10:09:34;;;;;;;;;;;;;;;10.33;100.00;100076.31;4915919;29;19919;-87
2023/04/09 10:12:01;;;;;;;;;;;;;;;10.37;100.00;100058.31;4925900;29;19919;-78
2023/04/09 10:14:28;;;;;;;;;;;;;;;10.35;100.00;100082.25;4925877;29;19926;-80
2023/04/09 10:16:54;;;;;;;;;;;;;;;10.35;100.00;100062.94;4925330;28;19926;-87
2023/04/09 10:19:21;;;;;;;;;;;;;;;10.36;100.00;100064.59;4897769;29;20045;-87
2023/04/09 10:21:52;;;;;;;;;;;;;;;10.38;100.00;100068.75;4911769;29;19927;-88
2023/04/09 10:24:18;;;;;;;;;;;;;;;10.41;100.00;100063.19;4918402;29;21257;-87
2023/04/09 10:26:43;;;;;;;;;;;;;;;10.43;100.00;100071.75;4908965;29;19923;-87
2023/04/09 10:29:13;;;;;;;;;;;;;;;10.37;100.00;100060.97;4927131;29;19969;-88
2023/04/09 10:31:45;;;;;;;;;;;;;;;10.39;100.00;100046.63;4896659;29;20395;-87
2023/04/09 10:34:14;;;;;;;;;;;;;;;10.42;100.00;100053.41;4894542;29;20299;-85
2023/04/09 10:36:42;;;;;;;;;;;;;;;10.42;100.00;100045.50;4929426;29;19934;-86
2023/04/09 10:39:15;;;;;;;;;;;;;;;10.46;100.00;100049.53;4901258;29;19922;-86
2023/04/09 10:41:41;;;;;;;;;;;;;;;10.50;100.00;100047.41;4925215;29;20322;-85
2023/04/09 10:44:24;;;;;;;;;;;;;;;10.49;100.00;100045.75;4913451;29;20005;-88
2023/04/09 10:46:51;;;;;;;;;;;;;;;10.53;100.00;100045.28;4910594;29;19920;-88
2023/04/09 10:49:17;;;;;;;;;;;;;;;10.55;100.00;100045.13;4897979;29;19926;-87
2023/04/09 10:52:01;;;;;;;;;;;;;;;10.61;100.00;100036.59;4928398;29;19919;-88
2023/04/09 10:54:33;;;;;;;;;;;;;;;10.65;100.00;100031.81;4914067;29;19952;-89
2023/04/09 10:57:07;;;;;;;;;;;;;;;10.70;100.00;100036.66;4932230;29;19919;-88
2023/04/09 10:59:35;;;;;;;;;;;;;;;10.76;100.00;100033.38;4929320;29;19919;-88
2023/04/09 11:02:01;;;;;;;;;;;;;;;10.81;100.00;100033.75;4927082;29;19927;-88
2023/04/09 11:04:50;;;;;;;;;;;;;;;10.85;100.00;100027.16;4922910;29;20018;-88
2023/04/09 11:07:17;;;;;;;;;;;;;;;10.91;100.00;100025.69;4883713;29;19938;-87
2023/04/09 11:09:43;;;;;;;;;;;;;;;10.94;100.00;100012.16;4927106;29;19919;-87
2023/04/09 11:12:10;;;;;;;;;;;;;;;10.91;100.00;100012.47;4904506;29;19934;-89
2023/04/09 11:14:35;;;;;;;;;;;;;;;10.91;100.00;100013.31;4902733;29;19920;-88
2023/04/09 11:17:02;;;;;;;;;;;;;;;10.94;100.00;100014.78;4921432;29;19923;-88
2023/04/09 11:19:27;;;;;;;;;;;;;;;10.87;100.00;100017.25;4924955;29;20316;-87
2023/04/09 11:21:53;;;;;;;;;;;;;;;10.84;100.00;100014.94;4893341;29;20041;-88
2023/04/09 11:24:19;;;;;;;;;;;;;;;10.73;100.00;100008.09;4925828;29;19950;-88
2023/04/09 11:26:47;;;;;;;;;;;;;;;10.68;100.00;100007.72;4930429;28;19923;-88
2023/04/09 11:29:13;;;;;;;;;;;;;;;10.63;100.00;100013.47;4894933;29;19919;-88
2023/04/09 11:31:42;;;;;;;;;;;;;;;10.61;100.00;100025.16;4908883;29;19969;-88
2023/04/09 11:34:09;;;;;;;;;;;;;;;10.60;100.00;100031.44;4912771;29;19923;-88
2023/04/09 11:36:34;;;;;;;;;;;;;;;10.57;100.00;100035.25;4934705;29;19927;-86
2023/04/09 11:39:01;;;;;;;;;;;;;;;10.56;100.00;100035.41;4920283;29;20038;-87
2023/04/09 11:41:37;;;;;;;;;;;;;;;10.58;100.00;100041.34;4933190;29;20009;-87
2023/04/09 11:44:03;;;;;;;;;;;;;;;10.56;100.00;100043.31;4922610;29;19934;-88
2023/04/09 11:46:32;;;;;;;;;;;;;;;10.53;100.00;100040.00;4897366;29;19946;-87
2023/04/09 11:48:58;;;;;;;;;;;;;;;10.55;100.00;100031.91;4910322;29;19915;-90
2023/04/09 11:51:25;;;;;;;;;;;;;;;10.53;100.00;100037.34;4916122;29;19966;-88
2023/04/09 11:53:51;;;;;;;;;;;;;;;10.51;100.00;100030.56;4891637;29;20042;-87
2023/04/09 11:56:17;;;;;;;;;;;;;;;10.50;100.00;100019.16;4899694;29;19920;-78
2023/04/09 11:58:45;;;;;;;;;;;;;;;10.53;100.00;100021.50;4904540;29;19926;-78
2023/04/09 12:01:11;;;;;;;;;;;;;;;10.54;100.00;100015.22;4904887;29;20002;-77
2023/04/09 12:03:37;;;;;;;;;;;;;;;10.56;100.00;99986.00;4907346;29;20463;-78
2023/04/09 12:06:04;;;;;;;;;;;;;;;10.65;100.00;100002.75;4912935;29;19923;-86
2023/04/09 12:08:30;;;;;;;;;;;;;;;10.67;100.00;100006.88;4911135;29;19957;-87
2023/04/09 12:10:56;;;;;;;;;;;;;;;10.71;100.00;99991.56;4912762;29;19923;-78
2023/04/09 12:13:31;;;;;;;;;;;;;;;10.82;100.00;99990.44;4915429;29;19929;-77
2023/04/09 12:15:57;;;;;;;;;;;;;;;10.93;100.00;99992.00;4935388;29;20395;-87
2023/04/09 12:18:22;;;;;;;;;;;;;;;10.99;100.00;99982.63;4927361;29;19919;-87
2023/04/09 12:20:48;;;;;;;;;;;;;;;11.03;100.00;99976.84;4928099;29;19966;-88
2023/04/09 12:23:14;;;;;;;;;;;;;;;11.06;100.00;99970.41;4920470;29;19945;-88
2023/04/09 12:25:41;;;;;;;;;;;;;;;11.02;100.00;99967.22;4939734;28;19922;-87
2023/04/09 12:28:08;;;;;;;;;;;;;;;11.10;100.00;99955.84;4906561;28;19923;-89
2023/04/09 12:30:34;;;;;;;;;;;;;;;11.17;100.00;99961.34;4923597;29;19938;-87
2023/04/09 12:33:01;;;;;;;;;;;;;;;11.21;100.00;99951.28;4915407;29;19927;-78
2023/04/09 12:35:28;;;;;;;;;;;;;;;11.19;100.00;99946.16;4906931;29;19923;-78